Terminal Aerodrome Forecast
Issued by NWS Wilmington, OH

Current Version | Previous Version | Text Only | Print | Product List | Glossary Off
Versions: 1 2 3 4 5 6 7 8 9 10 11 12 13 14 15 16 17 18 19 20 21 22

404
FTUS41 KILN 242340
TAFCMH
TAF
KCMH 242340Z 2500/2524 11008KT 6SM -SHRA VCTS OVC035CB
     FM250200 13008KT P6SM VCTS OVC028CB
     FM250300 13008KT P6SM VCTS OVC035CB
     FM250800 17006KT P6SM VCTS OVC017CB
     FM251200 17005KT 6SM -SHRA OVC024
     FM251900 22007KT 6SM -SHRA OVC008
     FM252100 26008KT 3SM SHRA OVC008
     FM252300 28009KT 6SM -SHRA OVC030=

USA.gov is the U.S. government's official web portal to all federal, state and local government web resources and services.